Latest Coastal Weather Observations for Hogan Island

IDV60701

Issued at 8:32 am EST Tuesday 30 May 2017 (issued every 10 minutes, with the page automatically refreshed every 10 minutes)

About coastal observations | Map of coastal stations | Coastal observations for VIC | Marine services | Other Formats
Station Details ID: 200838 Name: HOGAN ISLAND Lat: -39.22 Lon: 146.98 Height: 116.0 m
Data from the previous 72 hours. | See also: Recent months at Hogan Island
Date/Time
EST
Temp
°C
Wind Pressure Rain since
9am
mm
Weather Cloud Vis
km
Sea
Height
m
Swell
Dir  Spd
kts
Gust
kts
hPa Trend Height
m
Period
s
Dir
30/08:30am 11.5 W 34 39 1015.3 - 2.8 - - - - - - -
30/08:03am 11.1 W 28 38 1014.9 - 2.8 - - - - - - -
30/08:00am 11.3 W 27 34 1015.1 - 2.8 - - - - - - -
30/07:30am 11.0 W 34 38 1014.8 - 2.8 - - - - - - -
30/07:26am 10.8 W 35 37 1014.8 - 2.8 - - - - - - -
30/07:07am 11.2 WNW 39 49 1014.4 - 2.0 - - - - - - -
30/07:00am 11.7 WNW 43 51 1013.7 - 1.6 - - - - - - -
30/06:30am 12.0 WNW 44 52 1013.0 - 1.6 - - - - - - -
30/06:00am 12.1 WNW 45 52 1012.4 - 1.6 - - - - - - -
30/05:30am 12.0 WNW 43 51 1012.3 - 1.6 - - - - - - -
30/05:23am 11.9 WNW 36 47 1012.5 - 1.6 - - - - - - -
30/05:00am 11.8 WNW 36 42 1013.5 - 1.6 - - - - - - -
30/04:38am 11.7 WNW 38 48 1013.5 - 1.6 - - - - - - -
30/04:30am 11.8 WNW 37 44 1013.7 - 1.6 - - - - - - -
30/04:00am 11.6 WNW 38 48 1013.4 - 1.6 - - - - - - -
30/03:30am 11.5 WNW 37 44 1014.1 - 1.6 - - - - - - -
30/03:25am 11.7 WNW 33 43 1014.4 - 1.6 - - - - - - -
30/03:00am 11.7 WNW 38 44 1014.5 - 1.6 - - - - - - -
30/02:30am 11.7 WNW 39 44 1014.7 - 1.6 - - - - - - -
30/02:13am 11.5 WNW 37 49 1014.3 - 1.6 - - - - - - -
30/02:00am 11.5 WNW 37 44 1014.8 - 1.6 - - - - - - -
30/01:30am 11.5 WNW 39 45 1014.7 - 1.6 - - - - - - -
30/01:00am 11.4 WNW 32 40 1015.4 - 1.6 - - - - - - -
30/12:30am 11.3 WNW 32 38 1015.8 - 1.6 - - - - - - -
30/12:00am 11.4 WNW 35 40 1015.7 - 1.6 - - - - - - -
 
Date/Time
EST
Temp
°C
Wind Pressure Rain since
9am
mm
Weather Cloud Vis
km
Sea
Height
m
Swell
Dir  Spd
kts
Gust
kts
hPa Trend Height
m
Period
s
Dir
29/11:30pm 11.5 WNW 35 40 1016.1 - 1.6 - - - - - - -
29/11:00pm 11.5 WNW 36 42 1016.0 - 1.6 - - - - - - -
29/10:30pm 11.4 WNW 34 39 1016.2 - 1.6 - - - - - - -
29/10:00pm 11.5 WNW 31 35 1016.7 - 1.6 - - - - - - -
29/09:30pm 11.3 WNW 29 34 1016.9 - 1.6 - - - - - - -
29/09:00pm 11.6 WNW 28 34 1017.1 - 1.6 - - - - - - -
29/08:30pm 11.3 WNW 30 35 1017.1 - 1.6 - - - - - - -
29/08:00pm 10.9 WNW 29 34 1017.0 - 1.6 - - - - - - -
29/07:42pm 10.9 WNW 36 39 1016.7 - 1.6 - - - - - - -
29/07:30pm 11.0 WNW 26 30 1017.1 - 1.6 - - - - - - -
29/07:00pm 10.9 WNW 26 33 1017.1 - 1.4 - - - - - - -
29/06:30pm 11.1 WNW 31 38 1016.7 - 1.4 - - - - - - -
29/06:00pm 10.9 WNW 27 31 1016.8 - 1.4 - - - - - - -
29/05:45pm 11.1 WNW 25 29 1016.7 - 1.4 - - - - - - -
29/05:30pm 11.3 W 27 32 1016.6 - 1.4 - - - - - - -
29/05:00pm 11.3 W 25 32 1016.4 - 1.4 - - - - - - -
29/04:41pm 10.7 WNW 24 38 1016.3 - 1.2 - - - - - - -
29/04:30pm 11.1 W 25 31 1016.4 - 1.2 - - - - - - -
29/04:10pm 10.1 W 27 37 1016.3 - 1.2 - - - - - - -
29/04:07pm 10.7 WNW 26 37 1016.1 - 1.2 - - - - - - -
29/04:00pm 10.6 WNW 25 32 1016.2 - 1.0 - - - - - - -
29/03:40pm 10.9 W 22 37 1016.0 - 1.0 - - - - - - -
29/03:30pm 10.3 W 25 33 1016.1 - 1.0 - - - - - - -
29/03:25pm 10.2 W 25 33 1016.1 - 1.0 - - - - - - -
29/02:30pm 11.6 W 25 31 1015.6 - 0.8 - - - - - - -
29/02:00pm 11.3 W 27 31 1015.5 - 0.8 - - - - - - -
29/01:30pm 10.4 W 26 35 1015.4 - 0.8 - - - - - - -
29/01:16pm 11.2 W 29 39 1014.9 - 0.4 - - - - - - -
29/01:00pm 12.4 W 25 30 1015.2 - 0.2 - - - - - - -
29/12:30pm 10.6 W 26 33 1015.4 - 0.2 - - - - - - -
29/12:16pm 12.1 W 29 39 1014.9 - 0.2 - - - - - - -
29/12:00pm 12.8 W 28 33 1015.2 - 0.2 - - - - - - -
29/11:30am 13.1 W 31 36 1015.4 - 0.2 - - - - - - -
29/11:00am 13.0 W 29 33 1015.3 - 0.2 - - - - - - -
29/10:30am 12.1 W 31 35 1015.2 - 0.2 - - - - - - -
29/10:00am 10.9 WSW 27 32 1014.9 - 0.2 - - - - - - -
29/09:31am 11.6 WSW 29 39 1014.7 - 0.0 - - - - - - -
29/09:30am 11.8 WSW 27 35 1014.7 - 0.0 - - - - - - -
29/09:00am 11.0 WSW 27 37 1014.6 - 18.8 - - - - - - -
29/08:46am 11.1 W 33 37 1014.0 - 18.8 - - - - - - -
29/08:42am 11.2 W 22 36 1014.1 - 18.8 - - - - - - -
29/08:30am 9.9 WSW 27 34 1014.3 - 18.8 - - - - - - -
29/08:00am 10.9 WSW 28 40 1013.4 - 18.8 - - - - - - -
29/07:30am 10.9 W 33 38 1013.1 - 18.8 - - - - - - -
29/07:00am 10.9 WSW 31 36 1012.7 - 18.8 - - - - - - -
29/06:30am 9.9 WSW 26 30 1012.3 - 18.8 - - - - - - -
29/06:21am 9.2 W 28 43 1012.3 - 18.8 - - - - - - -
29/06:11am 9.6 W 39 43 1011.8 - 18.6 - - - - - - -
29/06:08am 10.2 WSW 28 38 1012.0 - 18.6 - - - - - - -
29/06:00am 10.0 WSW 29 35 1012.2 - 18.6 - - - - - - -
29/05:30am 10.5 WSW 28 35 1011.5 - 18.6 - - - - - - -
29/05:00am 10.5 WSW 33 41 1011.2 - 18.6 - - - - - - -
29/04:53am 11.0 WSW 31 41 1011.0 - 18.6 - - - - - - -
29/04:30am 10.5 WSW 28 33 1010.7 - 18.6 - - - - - - -
29/04:00am 11.0 WSW 30 35 1010.4 - 18.6 - - - - - - -
29/03:30am 10.4 W 30 38 1010.1 - 18.6 - - - - - - -
29/03:15am 10.6 WSW 30 41 1009.9 - 18.4 - - - - - - -
29/03:00am 10.7 WSW 28 33 1010.1 - 18.4 - - - - - - -
29/02:30am 10.6 WSW 28 33 1009.8 - 18.4 - - - - - - -
29/02:00am 10.5 WSW 29 34 1009.6 - 18.4 - - - - - - -
29/01:30am 10.3 WSW 28 33 1009.2 - 18.4 - - - - - - -
29/01:00am 10.0 WSW 28 33 1009.0 - 18.4 - - - - - - -
29/12:34am 10.1 WSW 22 33 1008.9 - 18.2 - - - - - - -
29/12:33am 9.8 WSW 20 30 1009.0 - 18.2 - - - - - - -
29/12:30am 9.6 WNW 24 30 1008.7 - 18.2 - - - - - - -
29/12:00am 9.6 WNW 24 32 1008.4 - 18.2 - - - - - - -
 
Date/Time
EST
Temp
°C
Wind Pressure Rain since
9am
mm
Weather Cloud Vis
km
Sea
Height
m
Swell
Dir  Spd
kts
Gust
kts
hPa Trend Height
m
Period
s
Dir
28/11:53pm 9.5 WNW 22 32 1008.5 - 18.2 - - - - - - -
28/11:30pm 9.5 WNW 24 30 1008.4 - 17.8 - - - - - - -
28/11:00pm 9.7 W 21 24 1008.5 - 17.8 - - - - - - -
28/10:30pm 9.2 W 19 23 1008.5 - 17.4 - - - - - - -
28/10:00pm 8.6 W 20 24 1008.4 - 16.2 - - - - - - -
28/09:45pm 8.4 WNW 23 32 1007.9 - 15.6 - - - - - - -
28/09:30pm 8.7 W 26 34 1007.7 - 15.2 - - - - - - -
28/09:24pm 9.3 W 24 34 1007.5 - 14.6 - - - - - - -
28/09:07pm 9.7 WNW 27 33 1007.2 - 14.4 - - - - - - -
28/09:00pm 9.7 W 23 33 1007.2 - 14.2 - - - - - - -
28/08:30pm 9.2 W 29 45 1007.0 - 14.2 - - - - - - -
28/08:27pm 9.0 W 33 45 1006.5 - 14.2 - - - - - - -
28/08:23pm 9.5 WNW 27 38 1006.4 - 13.8 - - - - - - -
28/08:00pm 9.9 WNW 26 31 1006.7 - 12.2 - - - - - - -
28/07:30pm 9.4 WNW 27 33 1006.3 - 12.2 - - - - - - -
28/07:00pm 9.6 WNW 27 32 1006.1 - 12.2 - - - - - - -
28/06:39pm 8.9 WNW 22 34 1006.2 - 12.2 - - - - - - -
28/06:30pm 8.3 WNW 33 39 1005.9 - 11.8 - - - - - - -
28/06:21pm 9.9 WNW 26 36 1005.6 - 11.4 - - - - - - -
28/06:00pm 9.7 WNW 26 31 1005.6 - 11.4 - - - - - - -
28/05:30pm 10.4 WNW 24 29 1005.3 - 11.4 - - - - - - -
28/05:00pm 9.9 WNW 21 25 1005.4 - 11.4 - - - - - - -
28/04:30pm 9.9 WNW 22 26 1005.1 - 11.4 - - - - - - -
28/04:28pm 9.7 WNW 21 26 1005.1 - 11.4 - - - - - - -
28/04:00pm 9.6 W 28 35 1004.8 - 11.0 - - - - - - -
28/03:30pm 9.5 W 31 42 1004.2 - 10.2 - - - - - - -
28/03:07pm 10.1 W 28 41 1003.9 - 9.4 - - - - - - -
28/03:00pm 9.9 W 28 35 1004.0 - 9.2 - - - - - - -
28/02:30pm 10.0 W 36 41 1003.5 - 8.4 - - - - - - -
28/02:11pm 10.1 W 30 41 1003.4 - 7.6 - - - - - - -
28/02:00pm 10.4 W 29 36 1003.5 - 7.0 - - - - - - -
28/01:37pm 10.8 W 29 39 1003.1 - 6.6 - - - - - - -
28/01:30pm 10.7 WNW 25 30 1003.4 - 6.6 - - - - - - -
28/01:00pm 10.2 WNW 27 32 1003.5 - 6.4 - - - - - - -
28/12:30pm 9.8 W 31 35 1003.5 - 5.4 - - - - - - -
28/12:01pm 7.9 W 34 44 1003.6 - 3.0 - - - - - - -
28/12:00pm 7.8 W 35 44 1003.5 - 2.6 - - - - - - -
28/11:55am 9.8 W 34 39 1003.3 - 0.4 - - - - - - -
28/11:43am 10.8 W 23 34 1003.9 - 0.2 - - - - - - -
28/11:30am 11.9 WNW 24 30 1004.1 - 0.2 - - - - - - -
28/11:00am 10.9 WNW 24 29 1004.5 - 0.2 - - - - - - -
28/10:30am 10.6 WNW 26 31 1004.5 - 0.2 - - - - - - -
28/10:00am 10.8 WNW 27 32 1004.5 - 0.2 - - - - - - -
28/09:30am 10.5 W 26 31 1004.6 - 0.2 - - - - - - -
28/09:00am 10.3 WNW 27 32 1004.6 - 1.8 - - - - - - -
28/08:30am 11.2 WNW 28 33 1004.2 - 1.8 - - - - - - -
28/08:00am 11.6 WNW 30 37 1003.7 - 1.8 - - - - - - -
28/07:30am 11.2 WNW 33 38 1003.7 - 1.8 - - - - - - -
28/07:00am 11.3 WNW 32 40 1003.7 - 1.8 - - - - - - -
28/06:30am 11.1 WNW 28 35 1003.8 - 1.8 - - - - - - -
28/06:00am 11.1 WNW 34 41 1003.6 - 1.8 - - - - - - -
28/05:30am 11.2 WNW 28 35 1003.8 - 1.8 - - - - - - -
28/05:10am 11.3 NW 24 34 1003.4 - 1.8 - - - - - - -
28/05:00am 11.4 NW 21 25 1003.6 - 1.8 - - - - - - -
28/04:30am 11.0 NW 22 28 1004.1 - 1.8 - - - - - - -
28/04:00am 11.5 WNW 30 35 1004.7 - 1.0 - - - - - - -
28/03:32am 11.6 W 36 46 1004.4 - 0.0 - - - - - - -
28/03:30am 12.1 W 35 41 1004.6 - 0.0 - - - - - - -
28/03:29am 12.4 W 35 41 1004.6 - 0.0 - - - - - - -
28/03:01am 12.6 W 22 32 1004.9 - 0.0 - - - - - - -
28/03:00am 12.5 W 23 32 1004.9 - 0.0 - - - - - - -
28/02:50am 13.3 W 26 29 1005.2 - 0.0 - - - - - - -
28/02:47am 15.1 NW 18 28 1005.3 - 0.0 - - - - - - -
28/02:46am 15.0 NW 14 24 1005.2 - 0.0 - - - - - - -
28/02:30am 14.9 N 22 28 1004.6 - 0.0 - - - - - - -
28/02:00am 14.9 N 22 28 1005.0 - 0.0 - - - - - - -
28/01:30am 15.1 N 21 28 1005.5 - 0.0 - - - - - - -
28/01:00am 15.0 N 18 22 1006.3 - 0.0 - - - - - - -
28/12:30am 14.9 N 19 24 1007.0 - 0.0 - - - - - - -
28/12:00am 15.2 N 20 25 1007.7 - 0.0 - - - - - - -
 
Date/Time
EST
Temp
°C
Wind Pressure Rain since
9am
mm
Weather Cloud Vis
km
Sea
Height
m
Swell
Dir  Spd
kts
Gust
kts
hPa Trend Height
m
Period
s
Dir
27/11:30pm 15.0 N 19 25 1007.9 - 0.0 - - - - - - -
27/11:00pm 15.1 N 19 24 1008.2 - 0.0 - - - - - - -
27/10:30pm 15.5 N 19 24 1008.7 - 0.0 - - - - - - -
27/10:00pm 15.7 N 21 25 1009.0 - 0.0 - - - - - - -
27/09:30pm 15.9 N 20 26 1009.3 - 0.0 - - - - - - -
27/09:00pm 15.5 N 20 25 1009.6 - 0.0 - - - - - - -
27/08:30pm 15.8 N 21 27 1010.0 - 0.0 - - - - - - -
27/08:00pm 15.6 N 17 22 1010.2 - 0.0 - - - - - - -
27/07:30pm 15.7 N 18 23 1010.5 - 0.0 - - - - - - -
27/07:00pm 15.4 N 14 19 1010.9 - 0.0 - - - - - - -
27/06:30pm 14.6 N 13 16 1011.1 - 0.0 - - - - - - -
27/06:00pm 14.7 N 14 17 1011.4 - 0.0 - - - - - - -
27/05:30pm 14.3 N 12 15 1011.6 - 0.0 - - - - - - -
27/05:00pm 14.3 N 11 13 1011.6 - 0.0 - - - - - - -
27/04:30pm 14.5 N 11 14 1011.8 - 0.0 - - - - - - -
27/04:00pm 15.0 N 12 14 1012.1 - 0.0 - - - - - - -
27/03:30pm 15.7 N 11 14 1012.3 - 0.0 - - - - - - -
27/03:00pm 15.7 N 11 13 1012.4 - 0.0 - - - - - - -
27/02:30pm 16.0 N 11 15 1012.7 - 0.0 - - - - - - -
27/02:00pm 16.4 N 13 17 1013.2 - 0.0 - - - - - - -
27/01:30pm 17.1 N 12 15 1013.7 - 0.0 - - - - - - -
27/01:00pm 16.3 N 11 16 1014.1 - 0.0 - - - - - - -
27/12:30pm 15.6 NNW 13 19 1014.6 - 0.0 - - - - - - -
27/12:00pm 15.3 N 12 15 1015.3 - 0.0 - - - - - - -
27/11:30am 15.4 NNW 11 17 1015.9 - 0.0 - - - - - - -
27/11:00am 15.2 N 15 19 1016.2 - 0.0 - - - - - - -
27/10:30am 15.4 N 13 19 1016.5 - 0.0 - - - - - - -
27/10:00am 15.2 N 15 18 1016.9 - 0.0 - - - - - - -
27/09:30am 15.4 N 14 19 1017.1 - 0.0 - - - - - - -
27/09:00am 14.5 N 16 20 1017.3 - 0.2 - - - - - - -

Other Formats:

Comma delimited format used in spreadsheet applications
http://www.bom.gov.au/fwo/IDV60701/IDV60701.94949.axf

JavaScript Object Notation format (JSON) in row-major order
http://www.bom.gov.au/fwo/IDV60701/IDV60701.94949.json